ADDS METAR Data INFO
IDs: Format: Raw Decoded Include TAF

Data at: 1510 UTC 21 Feb 2018

K4BM 211436Z AUTO 22012G18KT 10SM CLR M18/M21 A2995 RMK AO2
K4BM 211413Z AUTO 22013G21KT 10SM CLR M18/M21 A2993 RMK AO2
K4BM 211353Z AUTO 23017G26KT 10SM CLR M18/M21 A2992 RMK AO2 LTG DSNT N AND NW
K4BM 211336Z AUTO 23016G23KT 10SM CLR M19/M22 A2992 RMK AO2 LTG DSNT SW THRU N
K4BM 211312Z AUTO 24015G23KT 10SM CLR M19/M22 A2991 RMK AO2 LTG DSNT N AND NW
K4BM 211255Z AUTO 24017G24KT 10SM CLR M19/M22 A2990 RMK AO2 LTG DSNT SW THRU N
K4BM 211236Z AUTO 24016G28KT 10SM CLR M18/M22 A2990 RMK AO2 LTG DSNT SW THRU N
K4BM 201512Z AUTO 20010G20KT 180V240 10SM CLR M18/M21 A2960 RMK AO2 LTG DSNT N
K4BM 201454Z AUTO 21010G22KT 10SM CLR M18/M21 A2958 RMK AO2
K4BM 201436Z AUTO 22015G24KT 10SM CLR M19/M22 A2957 RMK AO2 LTG DSNT N AND NW
K4BM 201412Z AUTO 22016G26KT 10SM CLR M18/M21 A2954 RMK AO2 LTG DSNT N AND NW
K4BM 201354Z AUTO 22015G25KT 10SM CLR M18/M21 A2955 RMK AO2 LTG DSNT N AND NW
K4BM 201336Z AUTO 22015G26KT 10SM CLR M18/M21 A2953 RMK AO2 LTG DSNT N AND NW
K4BM 201312Z AUTO 21012G21KT 10SM CLR M18/M21 A2954 RMK AO2 LTG DSNT NW
K4BM 201254Z AUTO 22012G25KT 10SM CLR A2952 RMK AO2 LTG DSNT NW
K4BM 201236Z AUTO 22014G23KT 10SM CLR A2952 RMK AO2 LTG DSNT N AND NW
K4BM 201212Z AUTO 21012G21KT 10SM CLR A2952 RMK AO2
K4BM 201154Z AUTO 22012G19KT 180V240 10SM CLR A2952 RMK AO2 LTG DSNT NW
K4BM 201136Z AUTO 21013G20KT 10SM CLR A2951 RMK AO2
K4BM 201112Z AUTO 21012G22KT 170V230 10SM CLR A2949 RMK AO2 LTG DSNT N
K4BM 201054Z AUTO 22012G20KT 10SM SCT085 A2949 RMK AO2 LTG DSNT N AND NW
K4BM 201036Z AUTO 21013G22KT 10SM SCT048 SCT060 SCT065 A2949 RMK AO2 LTG DSNT N AND NW
K4BM 201012Z AUTO 21011G22KT 10SM SCT048 OVC060 A2949 RMK AO2 LTG DSNT N AND NW
K4BM 200954Z AUTO 21013G24KT 10SM SCT043 SCT050 OVC065 A2949 RMK AO2 LTG DSNT N AND NW
K4BM 200936Z AUTO 22015G27KT 10SM SCT018 BKN043 OVC050 A2948 RMK AO2 LTG DSNT N AND NW
K4BM 200912Z AUTO 22017G28KT 10SM SCT007 OVC018 A2948 RMK AO2 LTG DSNT N AND NW
K4BM 200854Z AUTO 22015G25KT 2 1/2SM -SN BKN009 OVC014 A2949 RMK AO2 LTG DSNT N AND NW
K4BM 200836Z AUTO 22018G26KT 10SM OVC015 A2947 RMK AO2 LTG DSNT N AND NW
K4BM 200812Z AUTO 22015G25KT 10SM BKN014 OVC021 A2946 RMK AO2 LTG DSNT N AND NW
K4BM 200754Z AUTO 22018G26KT 5SM -SN SCT002 BKN010 OVC014 A2946 RMK AO2 LTG DSNT N AND NW
K4BM 200736Z AUTO 22016G25KT 2SM -SN BKN002 OVC009 A2945 RMK AO2 LTG DSNT NW
K4BM 200712Z AUTO 23014G22KT 1/2SM +SN OVC002 A2944 RMK AO2 LTG DSNT NW
K4BM 200654Z AUTO 22013G20KT 1/2SM SN OVC002 A2944 RMK AO2 LTG DSNT N AND NW
K4BM 200636Z AUTO 22013G20KT 1/2SM +SN OVC002 A2945 RMK AO2 LTG DSNT N AND NW
K4BM 200612Z AUTO 22013KT 1/2SM +SN OVC002 M11/M13 A2944 RMK AO2 LTG DSNT N AND NW
K4BM 200554Z AUTO 1/2SM SN OVC002 M11/M13 A2943 RMK AO2
K4BM 200536Z AUTO 1/2SM -SN OVC002 M11/M13 A2943 RMK AO2 LTG DSNT NW
K4BM 200512Z AUTO 1/2SM SN OVC002 M11/M12 A2942 RMK AO2
K4BM 200454Z AUTO 22015KT 1/2SM SN OVC002 M10/M12 A2942 RMK AO2
K4BM 200436Z AUTO 1/4SM +SN OVC002 M10/M11 A2940 RMK AO2 LTG DSNT NW
K4BM 200412Z AUTO 22013G20KT 1/4SM +SN OVC002 M08/M10 A2942 RMK AO2 LTG DSNT N AND NW
K4BM 200353Z AUTO 21013G19KT 1/2SM SN OVC002 M08/M10 A2940 RMK AO2 LTG DSNT N AND NW
K4BM 200335Z AUTO 23014G23KT 1/2SM SN OVC002 M08/M10 A2939 RMK AO2 LTG DSNT N AND NW
K4BM 200312Z AUTO 24015G30KT 1/2SM SN OVC002 M07/M08 A2939 RMK AO2 LTG DSNT N AND NW